Airport View

Enter AWOS ICAO identifier for current METAR.

ex. KFNL

K0CO 101515Z AUTO 32010G19KT 10SM CLR 10/00 A3071 RMK AO2 PWINO

10 Aug 2020 15:35

Frequency: 134.325

Other Area AWOS: KGNB - KCCU - KBDU - KBJC

TAF KBJC 101145Z 1012/1112 35007KT P6SM FEW140 FM101700 08007KT P6SM SCT140 FM102300 11010KT P6SM VCTS SCT090CB BKN140 FM110300 19007KT P6SM SCT090 BKN140 FM110700 28005KT P6SM FEW090 SCT140